Time;durP1;ratioP1;P1;durP2;ratioP2;P2;SDS_P1;SDS_P2;PMS_P1;PMS_P2;Temp;Humidity;BMP_temperature;BMP_pressure;BME280_temperature;BME280_humidity;BME280_pressure;Samples;Min_cycle;Max_cycle;Signal;HPM_P1;HPM_P2
2022/01/24 00:01:09;;;;;;;;;;;14.80;58.20;;;;;;5111634;28;19930;-72
2022/01/24 00:03:36;;;;;;;;;;;14.80;58.20;;;;;;5111328;28;19924;-72
2022/01/24 00:06:06;;;;;;;;;;;14.80;58.20;;;;;;5111223;28;19965;-72
2022/01/24 00:08:33;;;;;;;;;;;14.70;58.20;;;;;;5112590;28;19971;-72
2022/01/24 00:11:06;;;;;;;;;;;14.70;58.20;;;;;;5111673;28;20330;-72
2022/01/24 00:16:23;;;;;;;;;;;14.80;58.30;;;;;;5110869;28;19927;-72
2022/01/24 00:27:03;;;;;;;;;;;14.70;58.20;;;;;;5111409;28;19919;-72
2022/01/24 00:29:30;;;;;;;;;;;14.70;58.30;;;;;;5111464;28;20010;-72
2022/01/24 00:31:57;;;;;;;;;;;14.70;58.20;;;;;;5111363;28;20280;-72
2022/01/24 00:34:24;;;;;;;;;;;14.70;58.20;;;;;;5111105;28;19930;-72
2022/01/24 00:36:52;;;;;;;;;;;14.70;58.30;;;;;;5110663;28;19930;-72
2022/01/24 00:39:19;;;;;;;;;;;14.70;58.40;;;;;;5111249;28;19945;-72
2022/01/24 00:41:52;;;;;;;;;;;14.70;58.30;;;;;;5112214;28;20019;-72
2022/01/24 00:44:42;;;;;;;;;;;14.60;58.30;;;;;;5114599;28;19928;-72
2022/01/24 00:47:14;;;;;;;;;;;14.60;58.30;;;;;;5114547;28;19930;-72
2022/01/24 00:55:10;;;;;;;;;;;14.60;58.40;;;;;;5115109;28;20018;-72
2022/01/24 00:57:36;;;;;;;;;;;14.60;58.40;;;;;;5114479;28;20412;-72
2022/01/24 01:00:04;;;;;;;;;;;14.60;58.40;;;;;;5115940;28;20010;-72
2022/01/24 01:02:30;;;;;;;;;;;14.50;58.40;;;;;;5114770;28;19994;-72
2022/01/24 01:05:17;;;;;;;;;;;14.50;58.40;;;;;;5114536;28;19930;-72
2022/01/24 01:07:56;;;;;;;;;;;14.50;58.40;;;;;;5115333;28;20463;-72
2022/01/24 01:18:35;;;;;;;;;;;14.50;58.30;;;;;;5099490;28;19920;-72
2022/01/24 01:21:12;;;;;;;;;;;14.60;58.30;;;;;;5102295;28;19924;-72
2022/01/24 01:23:43;;;;;;;;;;;14.50;58.20;;;;;;5115295;28;19968;-72
2022/01/24 01:26:17;;;;;;;;;;;14.50;58.30;;;;;;5113953;28;20388;-72
2022/01/24 01:28:45;;;;;;;;;;;14.50;58.30;;;;;;5114240;28;20003;-73
2022/01/24 01:31:22;;;;;;;;;;;14.50;58.30;;;;;;5113923;28;20644;-72
2022/01/24 01:33:58;;;;;;;;;;;14.50;58.30;;;;;;5113767;28;19928;-72
2022/01/24 01:36:40;;;;;;;;;;;14.50;58.40;;;;;;5113527;28;19928;-72
2022/01/24 01:52:58;;;;;;;;;;;14.50;58.40;;;;;;5113753;28;19923;-72
2022/01/24 01:55:37;;;;;;;;;;;14.40;58.30;;;;;;5112791;28;19928;-72
2022/01/24 01:58:04;;;;;;;;;;;14.50;58.40;;;;;;5114576;28;19923;-72
2022/01/24 02:00:30;;;;;;;;;;;14.50;58.40;;;;;;5114457;28;20014;-73
2022/01/24 02:02:57;;;;;;;;;;;14.50;58.30;;;;;;5113192;28;19924;-72
2022/01/24 02:05:24;;;;;;;;;;;14.50;58.20;;;;;;5114648;28;20351;-72
2022/01/24 02:07:51;;;;;;;;;;;14.50;58.20;;;;;;5113302;28;20011;-72
2022/01/24 02:10:18;;;;;;;;;;;14.50;58.20;;;;;;5114318;28;19981;-72
2022/01/24 02:12:46;;;;;;;;;;;14.50;58.20;;;;;;5114246;28;19930;-72
2022/01/24 02:15:17;;;;;;;;;;;14.50;58.20;;;;;;5112832;28;19924;-72
2022/01/24 02:17:55;;;;;;;;;;;14.50;58.20;;;;;;5105593;28;20430;-72
2022/01/24 02:20:39;;;;;;;;;;;14.50;58.20;;;;;;5095849;28;19924;-72
2022/01/24 02:23:31;;;;;;;;;;;14.50;58.10;;;;;;5112549;28;19923;-72
2022/01/24 02:25:58;;;;;;;;;;;14.50;58.20;;;;;;5092580;28;20461;-72
2022/01/24 02:28:28;;;;;;;;;;;14.50;58.20;;;;;;5092056;28;19924;-72
2022/01/24 02:31:06;;;;;;;;;;;14.50;58.10;;;;;;5092831;28;19930;-72
2022/01/24 02:33:32;;;;;;;;;;;14.50;58.10;;;;;;5092481;28;20297;-72
2022/01/24 02:35:59;;;;;;;;;;;14.50;58.10;;;;;;5091662;28;20010;-73
2022/01/24 02:38:39;;;;;;;;;;;14.60;58.20;;;;;;5092580;28;20365;-72
2022/01/24 02:49:22;;;;;;;;;;;14.60;58.00;;;;;;5067938;28;19977;-72
2022/01/24 02:51:49;;;;;;;;;;;14.60;58.00;;;;;;5112580;28;19924;-72
2022/01/24 02:54:20;;;;;;;;;;;14.60;58.00;;;;;;5112456;28;20451;-72
2022/01/24 02:56:47;;;;;;;;;;;14.60;58.00;;;;;;5113088;28;19928;-72
2022/01/24 02:59:14;;;;;;;;;;;14.60;57.90;;;;;;5111998;28;20014;-72
2022/01/24 03:01:41;;;;;;;;;;;14.70;58.00;;;;;;5113614;28;20014;-72
2022/01/24 03:04:07;;;;;;;;;;;14.60;57.90;;;;;;5112389;28;19974;-72
2022/01/24 03:06:34;;;;;;;;;;;14.60;57.90;;;;;;5111444;28;19934;-72
2022/01/24 03:09:00;;;;;;;;;;;14.70;58.00;;;;;;5112290;28;19924;-72
2022/01/24 03:11:48;;;;;;;;;;;14.60;57.90;;;;;;5113124;28;19995;-72
2022/01/24 03:14:15;;;;;;;;;;;14.70;57.90;;;;;;5111500;28;19930;-72
2022/01/24 03:16:42;;;;;;;;;;;14.70;57.90;;;;;;5111767;28;19924;-73
2022/01/24 03:19:08;;;;;;;;;;;14.70;57.90;;;;;;5113291;28;20022;-73
2022/01/24 03:21:35;;;;;;;;;;;14.70;57.80;;;;;;5111354;28;19956;-73
2022/01/24 03:24:01;;;;;;;;;;;14.70;57.80;;;;;;5111740;28;20361;-73
2022/01/24 03:26:31;;;;;;;;;;;14.70;57.80;;;;;;5099745;28;20468;-72
2022/01/24 03:28:58;;;;;;;;;;;14.70;57.80;;;;;;5090869;28;20014;-72
2022/01/24 03:31:24;;;;;;;;;;;14.80;57.80;;;;;;5092420;28;19946;-72
2022/01/24 03:33:51;;;;;;;;;;;14.80;57.80;;;;;;5090976;28;20010;-72
2022/01/24 03:36:17;;;;;;;;;;;14.80;57.80;;;;;;5090880;28;19928;-72
2022/01/24 03:38:44;;;;;;;;;;;14.80;57.80;;;;;;5091233;28;20011;-72
2022/01/24 03:41:10;;;;;;;;;;;14.80;57.70;;;;;;5110145;28;20022;-72
2022/01/24 03:43:38;;;;;;;;;;;14.80;57.70;;;;;;5111503;28;20420;-72
2022/01/24 03:46:14;;;;;;;;;;;14.80;57.70;;;;;;5111397;28;19970;-72
2022/01/24 03:48:44;;;;;;;;;;;14.80;58.30;;;;;;5111269;28;19924;-72
2022/01/24 03:51:11;;;;;;;;;;;14.80;57.70;;;;;;5111833;28;19924;-72
2022/01/24 03:53:37;;;;;;;;;;;14.80;57.70;;;;;;5111315;28;20006;-72
2022/01/24 03:56:04;;;;;;;;;;;14.80;57.60;;;;;;5110904;28;19924;-72
2022/01/24 03:58:31;;;;;;;;;;;14.80;57.60;;;;;;5111542;28;19962;-72
2022/01/24 04:00:59;;;;;;;;;;;14.80;57.60;;;;;;5111218;28;19939;-72
2022/01/24 04:03:26;;;;;;;;;;;14.80;57.60;;;;;;5111431;28;19931;-72
2022/01/24 04:05:52;;;;;;;;;;;14.80;57.60;;;;;;5111173;28;19930;-72
2022/01/24 04:08:19;;;;;;;;;;;14.80;57.60;;;;;;5112501;28;19924;-72
2022/01/24 04:10:49;;;;;;;;;;;14.90;57.60;;;;;;5111401;28;19930;-72
2022/01/24 04:13:25;;;;;;;;;;;14.90;57.60;;;;;;5111184;28;19924;-72
2022/01/24 04:16:11;;;;;;;;;;;14.90;57.60;;;;;;5110957;28;20292;-72
2022/01/24 04:18:46;;;;;;;;;;;14.90;57.50;;;;;;5116416;28;20314;-72
2022/01/24 04:21:21;;;;;;;;;;;14.90;57.50;;;;;;5115800;28;20307;-72
2022/01/24 04:23:52;;;;;;;;;;;14.90;57.60;;;;;;5115378;28;20388;-72
2022/01/24 04:26:18;;;;;;;;;;;14.90;57.50;;;;;;5114821;28;19963;-72
2022/01/24 04:28:45;;;;;;;;;;;14.90;57.50;;;;;;5115154;28;20014;-72
2022/01/24 04:31:12;;;;;;;;;;;14.90;57.50;;;;;;5115335;28;20295;-72
2022/01/24 04:33:39;;;;;;;;;;;16.20;58.20;;;;;;5114850;28;20436;-72
2022/01/24 04:36:06;;;;;;;;;;;14.90;57.50;;;;;;5114396;28;20010;-72
2022/01/24 04:38:33;;;;;;;;;;;14.90;57.40;;;;;;5115843;28;19923;-72
2022/01/24 04:41:04;;;;;;;;;;;14.90;57.40;;;;;;5105819;28;19959;-72
2022/01/24 04:43:46;;;;;;;;;;;14.90;57.50;;;;;;5104264;28;20381;-72
2022/01/24 04:46:18;;;;;;;;;;;14.90;57.40;;;;;;5103607;28;19946;-72
2022/01/24 04:51:38;;;;;;;;;;;14.90;57.40;;;;;;5103213;28;19928;-72
2022/01/24 04:54:39;;;;;;;;;;;14.90;57.40;;;;;;5097743;28;19924;-72
2022/01/24 04:57:07;;;;;;;;;;;14.90;57.50;;;;;;5105016;28;19924;-72
2022/01/24 04:59:34;;;;;;;;;;;14.90;57.50;;;;;;5102418;28;19928;-72
2022/01/24 05:02:00;;;;;;;;;;;14.90;57.40;;;;;;5104046;28;20022;-72
2022/01/24 05:04:28;;;;;;;;;;;14.90;57.40;;;;;;5104152;28;19968;-72
2022/01/24 05:06:55;;;;;;;;;;;14.90;57.40;;;;;;5102204;28;19975;-72
2022/01/24 05:09:22;;;;;;;;;;;14.90;57.40;;;;;;5103670;28;19976;-72
2022/01/24 05:11:53;;;;;;;;;;;14.90;57.40;;;;;;5103392;28;20458;-72
2022/01/24 05:25:29;;;;;;;;;;;14.90;57.30;;;;;;5113741;28;19966;-72
2022/01/24 05:27:56;;;;;;;;;;;14.90;57.40;;;;;;5103917;28;19931;-72
2022/01/24 05:30:22;;;;;;;;;;;14.90;57.30;;;;;;5102057;28;20003;-72
2022/01/24 05:32:49;;;;;;;;;;;14.90;57.30;;;;;;5101277;28;20459;-72
2022/01/24 05:35:17;;;;;;;;;;;14.90;57.30;;;;;;5093201;28;19928;-72
2022/01/24 05:37:43;;;;;;;;;;;14.90;57.30;;;;;;5092963;28;20015;-72
2022/01/24 05:40:10;;;;;;;;;;;14.90;57.30;;;;;;5093413;28;20003;-72
2022/01/24 05:42:37;;;;;;;;;;;14.90;57.30;;;;;;5093358;28;20367;-72
2022/01/24 05:45:04;;;;;;;;;;;14.90;57.30;;;;;;5093146;28;20010;-72
2022/01/24 05:47:30;;;;;;;;;;;14.90;57.30;;;;;;5092894;28;19999;-72
2022/01/24 05:49:57;;;;;;;;;;;14.90;57.20;;;;;;5094041;28;19924;-72
2022/01/24 05:52:25;;;;;;;;;;;14.90;57.20;;;;;;5094100;28;20014;-72
2022/01/24 05:54:51;;;;;;;;;;;14.90;57.20;;;;;;5094066;28;20007;-72
2022/01/24 05:57:18;;;;;;;;;;;14.90;57.20;;;;;;5092528;28;19997;-72
2022/01/24 05:59:45;;;;;;;;;;;14.90;57.20;;;;;;5092996;28;20014;-72
2022/01/24 06:02:11;;;;;;;;;;;16.50;58.10;;;;;;5092922;28;20281;-72
2022/01/24 06:04:38;;;;;;;;;;;14.90;57.20;;;;;;5092477;28;20011;-72
2022/01/24 06:07:04;;;;;;;;;;;14.90;57.20;;;;;;5100880;28;19998;-72
2022/01/24 06:09:32;;;;;;;;;;;14.90;57.20;;;;;;5101204;28;19993;-72
2022/01/24 06:11:59;;;;;;;;;;;14.90;57.30;;;;;;5103099;28;20010;-72
2022/01/24 06:14:25;;;;;;;;;;;14.90;57.20;;;;;;5103678;28;19963;-72
2022/01/24 06:16:52;;;;;;;;;;;14.90;57.20;;;;;;5100527;28;20007;-72
2022/01/24 06:19:19;;;;;;;;;;;14.90;57.20;;;;;;5101706;28;20027;-72
2022/01/24 06:21:45;;;;;;;;;;;14.90;57.20;;;;;;5100712;28;20015;-72
2022/01/24 06:24:12;;;;;;;;;;;14.90;57.20;;;;;;5103487;28;20449;-72
2022/01/24 06:26:40;;;;;;;;;;;14.90;57.20;;;;;;5102156;28;20010;-71
2022/01/24 06:29:07;;;;;;;;;;;14.90;57.20;;;;;;5104261;28;20034;-72
2022/01/24 06:31:34;;;;;;;;;;;14.90;57.20;;;;;;5103176;28;19930;-72
2022/01/24 06:34:00;;;;;;;;;;;14.90;57.20;;;;;;5101467;28;20012;-72
2022/01/24 06:36:27;;;;;;;;;;;14.90;57.20;;;;;;5101527;28;19934;-72
2022/01/24 06:38:53;;;;;;;;;;;14.90;57.20;;;;;;5100669;28;20373;-72
2022/01/24 06:41:25;;;;;;;;;;;14.90;57.20;;;;;;5101351;28;19923;-72
2022/01/24 06:43:53;;;;;;;;;;;14.90;57.10;;;;;;5104052;28;19930;-72
2022/01/24 06:46:20;;;;;;;;;;;16.70;58.20;;;;;;5100828;28;20015;-72
2022/01/24 06:48:46;;;;;;;;;;;14.90;57.10;;;;;;5101397;28;19930;-72
2022/01/24 06:51:13;;;;;;;;;;;14.90;57.10;;;;;;5102872;28;19924;-72
2022/01/24 06:53:39;;;;;;;;;;;14.90;57.10;;;;;;5112305;28;20271;-72
2022/01/24 06:56:06;;;;;;;;;;;14.90;57.10;;;;;;5112099;28;19923;-72
2022/01/24 06:58:33;;;;;;;;;;;14.90;57.10;;;;;;5108645;28;20020;-72
2022/01/24 07:01:01;;;;;;;;;;;14.90;57.10;;;;;;5092166;28;20007;-72
2022/01/24 07:03:27;;;;;;;;;;;14.90;57.10;;;;;;5092688;28;19979;-72
2022/01/24 07:05:54;;;;;;;;;;;14.90;57.10;;;;;;5092905;28;19925;-72
2022/01/24 07:08:20;;;;;;;;;;;14.90;57.10;;;;;;5091155;28;20018;-72
2022/01/24 07:10:47;;;;;;;;;;;14.90;57.10;;;;;;5090681;28;20011;-71
2022/01/24 07:13:14;;;;;;;;;;;14.90;57.10;;;;;;5092290;28;20456;-70
2022/01/24 07:15:47;;;;;;;;;;;14.90;57.10;;;;;;5092601;28;20019;-71
2022/01/24 07:18:57;;;;;;;;;;;14.90;57.10;;;;;;5102733;28;19931;-71
2022/01/24 07:21:04;;;;;;;;;;;15.00;57.20;;;;;;5111556;28;19923;-71
2022/01/24 07:23:31;;;;;;;;;;;15.00;57.20;;;;;;5112696;28;20014;-71
2022/01/24 07:25:57;;;;;;;;;;;15.00;57.20;;;;;;5111563;28;19923;-71
2022/01/24 07:28:24;;;;;;;;;;;15.00;57.20;;;;;;5111851;28;20364;-71
2022/01/24 07:30:50;;;;;;;;;;;15.00;57.20;;;;;;5112935;28;19924;-72
2022/01/24 07:33:18;;;;;;;;;;;15.00;57.20;;;;;;5107535;28;20384;-72
2022/01/24 07:35:45;;;;;;;;;;;15.00;57.20;;;;;;5092380;28;19971;-72
2022/01/24 07:38:11;;;;;;;;;;;15.00;57.20;;;;;;5091334;28;20376;-72
2022/01/24 07:40:41;;;;;;;;;;;15.00;57.20;;;;;;5092276;28;19930;-72
2022/01/24 07:43:12;;;;;;;;;;;15.00;57.20;;;;;;5091313;28;19924;-72
2022/01/24 07:45:39;;;;;;;;;;;15.00;57.10;;;;;;5098951;28;19927;-72
2022/01/24 07:48:06;;;;;;;;;;;15.00;57.10;;;;;;5110060;28;20396;-72
2022/01/24 07:50:35;;;;;;;;;;;15.00;57.10;;;;;;5112891;28;19930;-72
2022/01/24 07:53:02;;;;;;;;;;;15.10;57.10;;;;;;5115975;28;19931;-72
2022/01/24 07:55:29;;;;;;;;;;;15.10;57.10;;;;;;5115224;28;20011;-72
2022/01/24 07:57:56;;;;;;;;;;;15.10;57.10;;;;;;5115884;28;20052;-72
2022/01/24 08:00:23;;;;;;;;;;;15.10;57.10;;;;;;5094971;28;19989;-72
2022/01/24 08:02:49;;;;;;;;;;;15.10;57.10;;;;;;5096709;28;19928;-71
2022/01/24 08:05:16;;;;;;;;;;;15.10;57.10;;;;;;5095083;28;19979;-71
2022/01/24 08:07:44;;;;;;;;;;;15.10;57.10;;;;;;5096059;28;19924;-71
2022/01/24 08:10:10;;;;;;;;;;;15.10;57.10;;;;;;5095337;28;19924;-71
2022/01/24 08:12:38;;;;;;;;;;;15.10;57.10;;;;;;5096283;28;19924;-71
2022/01/24 08:15:05;;;;;;;;;;;15.10;57.00;;;;;;5096465;28;20010;-71
2022/01/24 08:17:32;;;;;;;;;;;15.20;57.10;;;;;;5098398;28;19923;-71
2022/01/24 08:19:58;;;;;;;;;;;15.20;57.10;;;;;;5110398;28;20014;-71
2022/01/24 08:22:25;;;;;;;;;;;15.20;57.10;;;;;;5114625;28;19970;-72
2022/01/24 08:24:53;;;;;;;;;;;15.20;57.00;;;;;;5116384;28;19966;-72
2022/01/24 08:27:19;;;;;;;;;;;15.20;57.00;;;;;;5115060;28;20387;-72
2022/01/24 08:29:47;;;;;;;;;;;15.20;57.00;;;;;;5116322;28;19924;-72
2022/01/24 08:32:14;;;;;;;;;;;15.20;57.00;;;;;;5116225;28;19947;-72
2022/01/24 08:34:41;;;;;;;;;;;15.20;57.00;;;;;;5106768;28;20018;-71
2022/01/24 08:37:07;;;;;;;;;;;15.20;57.00;;;;;;5106210;28;20456;-71
2022/01/24 08:39:34;;;;;;;;;;;15.20;56.90;;;;;;5104774;28;20007;-72
2022/01/24 08:42:11;;;;;;;;;;;15.20;57.00;;;;;;5102619;28;20011;-71
2022/01/24 08:47:22;;;;;;;;;;;15.20;56.80;;;;;;5128541;27;19920;-72
2022/01/24 08:49:49;;;;;;;;;;;15.20;56.80;;;;;;5101545;28;20001;-72
2022/01/24 08:52:15;;;;;;;;;;;15.30;56.90;;;;;;5112034;28;20022;-72
2022/01/24 08:54:42;;;;;;;;;;;15.30;56.90;;;;;;5115390;28;20022;-72
2022/01/24 08:57:10;;;;;;;;;;;15.30;56.80;;;;;;5114517;28;19967;-72
2022/01/24 08:59:38;;;;;;;;;;;15.30;56.80;;;;;;5114378;28;20435;-72
2022/01/24 09:02:04;;;;;;;;;;;15.30;56.80;;;;;;5114561;28;19969;-72
2022/01/24 09:04:31;;;;;;;;;;;15.30;56.80;;;;;;5113343;28;19924;-72
2022/01/24 09:07:00;;;;;;;;;;;15.30;56.80;;;;;;5114393;28;20424;-72
2022/01/24 09:09:26;;;;;;;;;;;15.30;56.70;;;;;;5114674;28;19935;-72
2022/01/24 09:11:53;;;;;;;;;;;15.30;56.70;;;;;;5114506;28;19923;-72
2022/01/24 09:14:21;;;;;;;;;;;15.30;56.70;;;;;;5114055;28;19928;-72
2022/01/24 09:16:48;;;;;;;;;;;15.30;56.70;;;;;;5114235;28;20007;-72
2022/01/24 09:19:15;;;;;;;;;;;15.30;56.70;;;;;;5113991;28;19928;-72
2022/01/24 09:21:41;;;;;;;;;;;15.40;56.70;;;;;;5113673;28;20006;-72
2022/01/24 09:24:08;;;;;;;;;;;15.40;56.70;;;;;;5114238;28;20019;-72
2022/01/24 09:26:34;;;;;;;;;;;15.40;56.70;;;;;;5113733;28;19924;-72
2022/01/24 09:29:01;;;;;;;;;;;15.40;56.70;;;;;;5114950;28;20380;-72
2022/01/24 09:31:29;;;;;;;;;;;15.40;56.70;;;;;;5113783;28;20002;-72
2022/01/24 09:33:55;;;;;;;;;;;15.40;56.70;;;;;;5113995;28;19930;-72
2022/01/24 09:36:22;;;;;;;;;;;15.40;56.70;;;;;;5113834;28;20018;-72
2022/01/24 09:38:49;;;;;;;;;;;15.40;56.70;;;;;;5113758;28;19978;-72
2022/01/24 09:41:15;;;;;;;;;;;15.40;56.60;;;;;;5113674;28;19930;-72
2022/01/24 09:43:43;;;;;;;;;;;15.40;56.60;;;;;;5113556;28;19931;-72
2022/01/24 09:46:10;;;;;;;;;;;15.40;56.60;;;;;;5113523;28;19931;-72
2022/01/24 09:48:38;;;;;;;;;;;15.40;56.60;;;;;;5113975;28;19930;-72
2022/01/24 09:51:04;;;;;;;;;;;15.40;56.60;;;;;;5113362;28;20015;-72
2022/01/24 09:53:32;;;;;;;;;;;15.40;56.60;;;;;;5113637;28;19924;-72
2022/01/24 09:56:03;;;;;;;;;;;15.40;56.60;;;;;;5114705;28;20305;-72
2022/01/24 09:58:29;;;;;;;;;;;15.40;56.60;;;;;;5113360;28;19928;-72
2022/01/24 10:00:56;;;;;;;;;;;15.40;56.50;;;;;;5113477;28;20093;-72
2022/01/24 10:03:24;;;;;;;;;;;15.40;56.50;;;;;;5113466;28;19931;-73
2022/01/24 10:05:53;;;;;;;;;;;15.50;56.60;;;;;;5114276;28;19971;-72
2022/01/24 10:08:20;;;;;;;;;;;15.50;56.60;;;;;;5113292;28;19974;-73
2022/01/24 10:10:49;;;;;;;;;;;15.50;56.60;;;;;;5113541;28;20365;-72
2022/01/24 10:16:25;;;;;;;;;;;15.50;56.50;;;;;;5112848;28;19919;-72
2022/01/24 10:18:58;;;;;;;;;;;15.50;56.50;;;;;;5095798;28;19978;-72
2022/01/24 10:21:26;;;;;;;;;;;15.50;56.50;;;;;;5104510;28;19923;-73
2022/01/24 10:23:53;;;;;;;;;;;15.50;56.50;;;;;;5113787;28;19923;-73
2022/01/24 10:26:19;;;;;;;;;;;15.50;56.50;;;;;;5112804;28;20372;-73
2022/01/24 10:28:46;;;;;;;;;;;15.50;56.50;;;;;;5113099;28;19928;-73
2022/01/24 10:31:13;;;;;;;;;;;15.50;56.50;;;;;;5113851;28;20026;-72
2022/01/24 10:33:50;;;;;;;;;;;15.50;56.50;;;;;;5107620;28;19992;-72
2022/01/24 10:36:27;;;;;;;;;;;15.50;56.50;;;;;;5101032;28;20376;-72
2022/01/24 10:38:55;;;;;;;;;;;15.50;56.40;;;;;;5092946;28;19924;-72
2022/01/24 10:41:24;;;;;;;;;;;15.50;56.40;;;;;;5100305;28;19924;-72
2022/01/24 10:43:52;;;;;;;;;;;15.50;56.40;;;;;;5091588;28;19928;-72
2022/01/24 10:46:22;;;;;;;;;;;15.50;56.40;;;;;;5091374;28;19976;-72
2022/01/24 10:48:50;;;;;;;;;;;15.60;56.50;;;;;;5099976;28;20002;-73
2022/01/24 10:51:17;;;;;;;;;;;15.50;56.40;;;;;;5097532;28;19924;-73
2022/01/24 10:53:46;;;;;;;;;;;15.50;56.40;;;;;;5100543;28;19928;-73
2022/01/24 10:56:25;;;;;;;;;;;15.50;56.40;;;;;;5101378;28;20011;-73
2022/01/24 10:58:52;;;;;;;;;;;15.50;56.40;;;;;;5101280;28;19923;-73
2022/01/24 11:01:21;;;;;;;;;;;15.50;56.40;;;;;;5101334;28;20011;-72
2022/01/24 11:03:57;;;;;;;;;;;15.50;56.40;;;;;;5102492;28;19924;-72
2022/01/24 11:06:27;;;;;;;;;;;15.40;56.40;;;;;;5102493;28;20010;-72
2022/01/24 11:09:09;;;;;;;;;;;15.40;56.50;;;;;;5103826;28;19930;-73
2022/01/24 11:11:37;;;;;;;;;;;15.30;56.40;;;;;;5101625;28;20018;-73
2022/01/24 11:14:03;;;;;;;;;;;15.30;56.50;;;;;;5100516;28;20007;-72
2022/01/24 11:16:30;;;;;;;;;;;15.30;57.10;;;;;;5102691;28;20006;-72
2022/01/24 11:18:57;;;;;;;;;;;15.30;56.50;;;;;;5102089;28;20016;-71
2022/01/24 11:21:23;;;;;;;;;;;15.20;56.50;;;;;;5098544;28;19928;-72
2022/01/24 11:23:50;;;;;;;;;;;15.20;56.70;;;;;;5102892;28;20174;-72
2022/01/24 11:26:17;;;;;;;;;;;15.20;56.80;;;;;;5101736;28;19924;-72
2022/01/24 11:28:45;;;;;;;;;;;15.20;56.80;;;;;;5101111;28;19985;-72
2022/01/24 11:31:14;;;;;;;;;;;15.20;56.80;;;;;;5102441;28;19998;-72
2022/01/24 11:33:41;;;;;;;;;;;15.30;56.80;;;;;;5102911;28;19932;-72
2022/01/24 11:36:08;;;;;;;;;;;15.30;56.70;;;;;;5117611;27;19974;-72
2022/01/24 11:38:36;;;;;;;;;;;15.30;56.70;;;;;;5101196;28;19924;-72
2022/01/24 11:41:03;;;;;;;;;;;15.30;56.60;;;;;;5096766;28;19924;-72
2022/01/24 11:43:33;;;;;;;;;;;15.30;56.60;;;;;;5090906;28;19924;-72
2022/01/24 11:46:05;;;;;;;;;;;15.20;56.50;;;;;;5092256;28;19963;-72
2022/01/24 11:48:33;;;;;;;;;;;15.20;56.50;;;;;;5092367;28;20006;-72
2022/01/24 11:51:03;;;;;;;;;;;15.20;56.50;;;;;;5094150;28;19932;-72
2022/01/24 11:53:30;;;;;;;;;;;15.20;56.50;;;;;;5092636;28;19924;-70
2022/01/24 11:55:57;;;;;;;;;;;15.20;56.50;;;;;;5092425;28;19924;-72
2022/01/24 11:58:26;;;;;;;;;;;15.20;56.50;;;;;;5090962;28;20377;-72
2022/01/24 12:00:55;;;;;;;;;;;15.20;56.70;;;;;;5091544;28;20427;-72
2022/01/24 12:03:26;;;;;;;;;;;15.10;56.60;;;;;;5091166;28;20450;-72
2022/01/24 12:05:53;;;;;;;;;;;15.10;56.60;;;;;;5096677;28;19924;-72
2022/01/24 12:08:31;;;;;;;;;;;15.10;56.60;;;;;;5111470;28;19935;-72
2022/01/24 12:11:05;;;;;;;;;;;15.10;56.60;;;;;;5111371;28;20007;-72
2022/01/24 12:13:37;;;;;;;;;;;15.10;56.60;;;;;;5112386;28;20011;-72
2022/01/24 12:16:04;;;;;;;;;;;15.10;56.60;;;;;;5112563;28;19924;-72
2022/01/24 12:19:01;;;;;;;;;;;15.00;56.50;;;;;;5112390;28;19979;-72
2022/01/24 12:21:29;;;;;;;;;;;15.00;56.60;;;;;;5111670;28;19924;-72
2022/01/24 12:23:57;;;;;;;;;;;15.00;56.60;;;;;;5111596;28;20359;-72
2022/01/24 12:26:25;;;;;;;;;;;15.00;56.70;;;;;;5110782;28;20303;-72
2022/01/24 12:28:53;;;;;;;;;;;15.00;56.70;;;;;;5110961;28;19924;-72
2022/01/24 12:31:21;;;;;;;;;;;15.00;56.70;;;;;;5111346;28;19924;-72
2022/01/24 12:33:58;;;;;;;;;;;15.00;56.70;;;;;;5111312;28;20007;-72
2022/01/24 12:36:46;;;;;;;;;;;14.90;56.60;;;;;;5111956;28;19924;-72
2022/01/24 12:39:15;;;;;;;;;;;14.90;56.60;;;;;;5114526;28;19924;-72
2022/01/24 12:41:46;;;;;;;;;;;14.90;56.60;;;;;;5115110;28;20482;-72
2022/01/24 12:46:17;;;;;;;;;;;14.90;56.60;;;;;;5115083;28;19970;-72
2022/01/24 12:46:58;;;;;;;;;;;14.90;56.70;;;;;;5114220;28;20393;-72
2022/01/24 12:49:25;;;;;;;;;;;14.90;56.70;;;;;;5115065;28;19926;-72
2022/01/24 12:51:51;;;;;;;;;;;14.90;56.60;;;;;;5115024;28;20011;-72
2022/01/24 12:54:19;;;;;;;;;;;14.90;56.70;;;;;;5115765;28;19948;-72
2022/01/24 12:56:46;;;;;;;;;;;14.90;56.70;;;;;;5114595;28;20006;-72
2022/01/24 12:59:13;;;;;;;;;;;14.90;56.60;;;;;;5114408;28;20372;-72
2022/01/24 13:01:41;;;;;;;;;;;14.90;56.70;;;;;;5114784;28;20026;-72
2022/01/24 13:04:10;;;;;;;;;;;14.90;56.80;;;;;;5115457;28;19924;-72
2022/01/24 13:06:39;;;;;;;;;;;14.90;56.70;;;;;;5111089;28;19927;-72
2022/01/24 13:09:13;;;;;;;;;;;14.90;56.70;;;;;;5114088;28;19999;-72
2022/01/24 13:11:45;;;;;;;;;;;15.00;56.80;;;;;;5114284;28;19928;-72
2022/01/24 13:14:15;;;;;;;;;;;15.00;56.70;;;;;;5114346;28;19977;-72
2022/01/24 13:22:19;;;;;;;;;;;15.00;56.60;;;;;;5111572;28;19920;-72
2022/01/24 13:25:05;;;;;;;;;;;15.10;56.60;;;;;;5115137;28;19928;-72
2022/01/24 13:27:37;;;;;;;;;;;15.10;56.60;;;;;;5115054;28;20097;-73
2022/01/24 13:30:04;;;;;;;;;;;15.10;56.50;;;;;;5114944;28;20015;-72
2022/01/24 13:32:41;;;;;;;;;;;15.10;56.50;;;;;;5113724;28;20391;-72
2022/01/24 13:35:18;;;;;;;;;;;15.10;56.50;;;;;;5114036;28;19930;-72
2022/01/24 13:37:45;;;;;;;;;;;15.10;56.50;;;;;;5114002;28;20006;-72
2022/01/24 13:40:12;;;;;;;;;;;15.10;56.50;;;;;;5113462;28;19928;-72
2022/01/24 13:42:40;;;;;;;;;;;15.20;56.50;;;;;;5110955;28;20340;-72
2022/01/24 13:45:07;;;;;;;;;;;15.20;56.40;;;;;;5101083;28;20007;-72
2022/01/24 13:47:33;;;;;;;;;;;15.20;56.40;;;;;;5103587;28;20002;-72
2022/01/24 13:50:00;;;;;;;;;;;15.20;56.40;;;;;;5103138;28;20014;-72
2022/01/24 13:52:28;;;;;;;;;;;15.20;56.40;;;;;;5103216;28;19928;-72
2022/01/24 13:54:54;;;;;;;;;;;15.20;56.40;;;;;;5102947;28;19924;-72
2022/01/24 13:57:21;;;;;;;;;;;15.20;56.30;;;;;;5103173;28;20348;-73
2022/01/24 13:59:50;;;;;;;;;;;15.20;56.30;;;;;;5103548;28;19924;-72
2022/01/24 14:02:19;;;;;;;;;;;15.30;56.40;;;;;;5102901;28;19967;-73
2022/01/24 14:04:48;;;;;;;;;;;15.30;56.30;;;;;;5091071;28;19924;-72
2022/01/24 14:07:15;;;;;;;;;;;15.30;56.30;;;;;;5114556;28;19924;-72
2022/01/24 14:09:44;;;;;;;;;;;15.30;56.30;;;;;;5105505;28;20074;-72
2022/01/24 14:12:12;;;;;;;;;;;15.30;56.30;;;;;;4187302;28;10001018;-73
2022/01/24 14:14:44;;;;;;;;;;;15.30;56.20;;;;;;5052222;28;19931;-73
2022/01/24 14:17:30;;;;;;;;;;;15.30;56.20;;;;;;5052381;28;19925;-74
2022/01/24 14:19:57;;;;;;;;;;;15.30;56.20;;;;;;5052437;28;19925;-74
2022/01/24 14:22:24;;;;;;;;;;;15.30;56.20;;;;;;5052043;28;20299;-72
2022/01/24 14:24:51;;;;;;;;;;;15.30;56.20;;;;;;5052341;28;20003;-72
2022/01/24 14:27:36;;;;;;;;;;;15.30;56.30;;;;;;5052385;28;20003;-72
2022/01/24 14:30:07;;;;;;;;;;;15.30;56.20;;;;;;5053365;28;19947;-72
2022/01/24 14:32:38;;;;;;;;;;;15.30;56.20;;;;;;5052441;28;19929;-72
2022/01/24 14:35:06;;;;;;;;;;;15.30;56.20;;;;;;5052039;28;19924;-71
2022/01/24 14:37:45;;;;;;;;;;;15.30;56.30;;;;;;5052080;28;19931;-71
2022/01/24 14:40:27;;;;;;;;;;;15.30;56.30;;;;;;5035282;28;19929;-71
2022/01/24 14:44:52;;;;;;;;;;;15.30;56.30;;;;;;5052607;28;19976;-73
2022/01/24 14:45:40;;;;;;;;;;;15.20;56.30;;;;;;5051110;28;19925;-71
2022/01/24 14:48:08;;;;;;;;;;;15.20;56.30;;;;;;5051843;28;19927;-72
2022/01/24 14:50:36;;;;;;;;;;;15.20;56.30;;;;;;5052038;28;19925;-72
2022/01/24 14:53:05;;;;;;;;;;;15.20;56.30;;;;;;5052164;28;19970;-72
2022/01/24 14:55:31;;;;;;;;;;;15.20;56.20;;;;;;5052295;28;19974;-72
2022/01/24 14:57:58;;;;;;;;;;;15.20;56.30;;;;;;5051704;28;20019;-72
2022/01/24 15:00:25;;;;;;;;;;;15.20;56.30;;;;;;5039528;28;19925;-72
2022/01/24 15:02:51;;;;;;;;;;;15.20;56.30;;;;;;5034772;28;19924;-73
2022/01/24 15:05:19;;;;;;;;;;;15.20;56.30;;;;;;5048708;28;19932;-73
2022/01/24 15:07:46;;;;;;;;;;;15.20;56.20;;;;;;5051501;28;20015;-73
2022/01/24 15:10:12;;;;;;;;;;;15.20;56.20;;;;;;5032265;28;19929;-73
2022/01/24 15:12:46;;;;;;;;;;;15.30;56.20;;;;;;5031768;28;19995;-73
2022/01/24 15:15:15;;;;;;;;;;;15.30;56.20;;;;;;5031706;28;20325;-73
2022/01/24 15:23:55;;;;;;;;;;;15.30;56.20;;;;;;5039365;28;20015;-73
2022/01/24 15:26:00;;;;;;;;;;;15.30;56.10;;;;;;5049928;28;19920;-71
2022/01/24 15:28:27;;;;;;;;;;;15.30;56.10;;;;;;5051936;28;20019;-71
2022/01/24 15:30:53;;;;;;;;;;;15.30;56.20;;;;;;5050429;28;20019;-73
2022/01/24 15:33:20;;;;;;;;;;;15.30;56.10;;;;;;5049381;28;20015;-72
2022/01/24 15:35:48;;;;;;;;;;;15.30;56.10;;;;;;5048766;28;19924;-72
2022/01/24 15:38:15;;;;;;;;;;;15.30;56.10;;;;;;5049401;28;20050;-72
2022/01/24 15:40:41;;;;;;;;;;;15.30;56.10;;;;;;5049986;28;20326;-72
2022/01/24 15:43:14;;;;;;;;;;;15.30;56.10;;;;;;5049982;28;19931;-72
2022/01/24 15:45:54;;;;;;;;;;;15.30;56.10;;;;;;5050420;28;19925;-72